sensor_id;sensor_type;location;lat;lon;timestamp;P1;durP1;ratioP1;P2;durP2;ratioP2
69240;SDS011;56352;55.750;13.198;2023-05-18T00:01:13;3.35;;;1.55;;
69240;SDS011;56352;55.750;13.198;2023-05-18T00:03:40;6.78;;;1.38;;
69240;SDS011;56352;55.750;13.198;2023-05-18T00:06:07;6.68;;;1.63;;
69240;SDS011;56352;55.750;13.198;2023-05-18T00:08:35;4.05;;;1.73;;
69240;SDS011;56352;55.750;13.198;2023-05-18T00:11:03;3.78;;;1.30;;
69240;SDS011;56352;55.750;13.198;2023-05-18T00:13:30;2.75;;;1.40;;
69240;SDS011;56352;55.750;13.198;2023-05-18T00:15:57;3.58;;;1.17;;
69240;SDS011;56352;55.750;13.198;2023-05-18T00:18:23;5.57;;;1.58;;
69240;SDS011;56352;55.750;13.198;2023-05-18T00:20:52;6.82;;;1.63;;
69240;SDS011;56352;55.750;13.198;2023-05-18T00:23:28;3.15;;;1.23;;
69240;SDS011;56352;55.750;13.198;2023-05-18T00:25:58;7.95;;;1.40;;
69240;SDS011;56352;55.750;13.198;2023-05-18T00:28:25;5.63;;;1.50;;
69240;SDS011;56352;55.750;13.198;2023-05-18T00:30:52;5.50;;;1.85;;
69240;SDS011;56352;55.750;13.198;2023-05-18T00:33:20;8.88;;;1.40;;
69240;SDS011;56352;55.750;13.198;2023-05-18T00:35:46;4.13;;;1.40;;
69240;SDS011;56352;55.750;13.198;2023-05-18T00:38:13;2.30;;;1.17;;
69240;SDS011;56352;55.750;13.198;2023-05-18T00:40:43;6.25;;;1.60;;
69240;SDS011;56352;55.750;13.198;2023-05-18T00:43:10;5.32;;;1.50;;
69240;SDS011;56352;55.750;13.198;2023-05-18T00:45:36;2.97;;;0.98;;
69240;SDS011;56352;55.750;13.198;2023-05-18T00:48:03;6.40;;;1.63;;
69240;SDS011;56352;55.750;13.198;2023-05-18T00:50:30;3.00;;;1.65;;
69240;SDS011;56352;55.750;13.198;2023-05-18T00:52:57;6.18;;;1.52;;
69240;SDS011;56352;55.750;13.198;2023-05-18T00:55:24;3.45;;;1.40;;
69240;SDS011;56352;55.750;13.198;2023-05-18T00:57:51;2.78;;;1.50;;
69240;SDS011;56352;55.750;13.198;2023-05-18T01:00:21;5.68;;;1.60;;
69240;SDS011;56352;55.750;13.198;2023-05-18T01:02:49;4.57;;;1.45;;
69240;SDS011;56352;55.750;13.198;2023-05-18T01:05:17;6.70;;;2.05;;
69240;SDS011;56352;55.750;13.198;2023-05-18T01:07:45;7.22;;;1.77;;
69240;SDS011;56352;55.750;13.198;2023-05-18T01:10:14;6.60;;;1.60;;
69240;SDS011;56352;55.750;13.198;2023-05-18T01:15:15;6.18;;;2.03;;
69240;SDS011;56352;55.750;13.198;2023-05-18T01:20:45;3.40;;;2.10;;
69240;SDS011;56352;55.750;13.198;2023-05-18T01:28:20;5.28;;;1.50;;
69240;SDS011;56352;55.750;13.198;2023-05-18T01:30:51;5.22;;;1.30;;
69240;SDS011;56352;55.750;13.198;2023-05-18T01:33:19;4.57;;;1.77;;
69240;SDS011;56352;55.750;13.198;2023-05-18T01:35:45;4.40;;;1.25;;
69240;SDS011;56352;55.750;13.198;2023-05-18T01:38:24;5.65;;;1.50;;
69240;SDS011;56352;55.750;13.198;2023-05-18T01:43:28;2.85;;;1.27;;
69240;SDS011;56352;55.750;13.198;2023-05-18T01:45:57;7.13;;;1.35;;
69240;SDS011;56352;55.750;13.198;2023-05-18T01:48:26;3.97;;;1.58;;
69240;SDS011;56352;55.750;13.198;2023-05-18T01:50:54;5.47;;;1.40;;
69240;SDS011;56352;55.750;13.198;2023-05-18T01:53:27;4.53;;;1.27;;
69240;SDS011;56352;55.750;13.198;2023-05-18T01:55:56;2.47;;;1.40;;
69240;SDS011;56352;55.750;13.198;2023-05-18T01:58:23;7.05;;;1.63;;
69240;SDS011;56352;55.750;13.198;2023-05-18T02:00:50;5.07;;;1.80;;
69240;SDS011;56352;55.750;13.198;2023-05-18T02:03:25;5.78;;;1.40;;
69240;SDS011;56352;55.750;13.198;2023-05-18T02:05:52;5.82;;;2.05;;
69240;SDS011;56352;55.750;13.198;2023-05-18T02:08:19;3.90;;;1.50;;
69240;SDS011;56352;55.750;13.198;2023-05-18T02:10:45;4.13;;;1.13;;
69240;SDS011;56352;55.750;13.198;2023-05-18T02:13:12;3.08;;;1.50;;
69240;SDS011;56352;55.750;13.198;2023-05-18T02:15:39;6.22;;;1.40;;
69240;SDS011;56352;55.750;13.198;2023-05-18T02:18:06;3.55;;;1.50;;
69240;SDS011;56352;55.750;13.198;2023-05-18T02:20:34;2.95;;;1.50;;
69240;SDS011;56352;55.750;13.198;2023-05-18T02:23:00;6.72;;;1.55;;
69240;SDS011;56352;55.750;13.198;2023-05-18T02:25:27;4.50;;;1.30;;
69240;SDS011;56352;55.750;13.198;2023-05-18T02:27:54;5.70;;;1.38;;
69240;SDS011;56352;55.750;13.198;2023-05-18T02:30:21;2.28;;;1.40;;
69240;SDS011;56352;55.750;13.198;2023-05-18T02:32:48;11.35;;;1.60;;
69240;SDS011;56352;55.750;13.198;2023-05-18T02:35:15;4.95;;;1.23;;
69240;SDS011;56352;55.750;13.198;2023-05-18T02:37:42;5.30;;;1.70;;
69240;SDS011;56352;55.750;13.198;2023-05-18T02:40:10;3.28;;;1.40;;
69240;SDS011;56352;55.750;13.198;2023-05-18T02:42:37;2.20;;;1.20;;
69240;SDS011;56352;55.750;13.198;2023-05-18T02:45:03;3.80;;;1.48;;
69240;SDS011;56352;55.750;13.198;2023-05-18T02:47:30;4.30;;;1.70;;
69240;SDS011;56352;55.750;13.198;2023-05-18T02:49:57;5.00;;;1.35;;
69240;SDS011;56352;55.750;13.198;2023-05-18T02:52:23;4.82;;;2.00;;
69240;SDS011;56352;55.750;13.198;2023-05-18T02:54:50;3.95;;;1.30;;
69240;SDS011;56352;55.750;13.198;2023-05-18T02:57:19;4.47;;;1.52;;
69240;SDS011;56352;55.750;13.198;2023-05-18T02:59:47;3.78;;;1.35;;
69240;SDS011;56352;55.750;13.198;2023-05-18T03:02:13;3.60;;;1.35;;
69240;SDS011;56352;55.750;13.198;2023-05-18T03:04:42;4.07;;;1.58;;
69240;SDS011;56352;55.750;13.198;2023-05-18T03:07:08;6.22;;;1.83;;
69240;SDS011;56352;55.750;13.198;2023-05-18T03:09:35;5.93;;;1.92;;
69240;SDS011;56352;55.750;13.198;2023-05-18T03:12:02;2.45;;;1.70;;
69240;SDS011;56352;55.750;13.198;2023-05-18T03:14:29;7.05;;;1.42;;
69240;SDS011;56352;55.750;13.198;2023-05-18T03:16:55;5.10;;;1.42;;
69240;SDS011;56352;55.750;13.198;2023-05-18T03:19:23;4.60;;;1.75;;
69240;SDS011;56352;55.750;13.198;2023-05-18T03:21:50;2.80;;;1.15;;
69240;SDS011;56352;55.750;13.198;2023-05-18T03:24:17;7.75;;;1.58;;
69240;SDS011;56352;55.750;13.198;2023-05-18T03:26:43;4.68;;;1.20;;
69240;SDS011;56352;55.750;13.198;2023-05-18T03:29:10;3.25;;;1.63;;
69240;SDS011;56352;55.750;13.198;2023-05-18T03:31:38;7.83;;;1.40;;
69240;SDS011;56352;55.750;13.198;2023-05-18T03:34:05;2.88;;;1.70;;
69240;SDS011;56352;55.750;13.198;2023-05-18T03:36:32;4.03;;;1.30;;
69240;SDS011;56352;55.750;13.198;2023-05-18T03:39:01;5.47;;;1.95;;
69240;SDS011;56352;55.750;13.198;2023-05-18T03:41:27;6.80;;;1.67;;
69240;SDS011;56352;55.750;13.198;2023-05-18T03:43:56;5.50;;;1.60;;
69240;SDS011;56352;55.750;13.198;2023-05-18T03:46:23;6.93;;;1.80;;
69240;SDS011;56352;55.750;13.198;2023-05-18T03:48:49;9.05;;;1.80;;
69240;SDS011;56352;55.750;13.198;2023-05-18T03:51:16;6.63;;;1.65;;
69240;SDS011;56352;55.750;13.198;2023-05-18T03:53:43;6.57;;;1.77;;
69240;SDS011;56352;55.750;13.198;2023-05-18T03:56:10;4.25;;;1.50;;
69240;SDS011;56352;55.750;13.198;2023-05-18T03:58:38;3.75;;;1.67;;
69240;SDS011;56352;55.750;13.198;2023-05-18T04:01:05;7.10;;;1.63;;
69240;SDS011;56352;55.750;13.198;2023-05-18T04:03:31;6.45;;;1.83;;
69240;SDS011;56352;55.750;13.198;2023-05-18T04:06:00;4.93;;;1.70;;
69240;SDS011;56352;55.750;13.198;2023-05-18T04:08:26;3.75;;;1.73;;
69240;SDS011;56352;55.750;13.198;2023-05-18T04:10:55;3.93;;;1.73;;
69240;SDS011;56352;55.750;13.198;2023-05-18T04:13:22;6.47;;;1.70;;
69240;SDS011;56352;55.750;13.198;2023-05-18T04:15:48;6.13;;;1.67;;
69240;SDS011;56352;55.750;13.198;2023-05-18T04:18:15;4.55;;;1.80;;
69240;SDS011;56352;55.750;13.198;2023-05-18T04:20:42;3.85;;;1.45;;
69240;SDS011;56352;55.750;13.198;2023-05-18T04:23:11;5.63;;;3.10;;
69240;SDS011;56352;55.750;13.198;2023-05-18T04:25:38;10.57;;;1.83;;
69240;SDS011;56352;55.750;13.198;2023-05-18T04:28:06;7.43;;;2.17;;
69240;SDS011;56352;55.750;13.198;2023-05-18T04:30:35;5.60;;;1.85;;
69240;SDS011;56352;55.750;13.198;2023-05-18T04:33:03;4.03;;;1.42;;
69240;SDS011;56352;55.750;13.198;2023-05-18T04:35:32;9.23;;;1.63;;
69240;SDS011;56352;55.750;13.198;2023-05-18T04:37:58;5.68;;;1.77;;
69240;SDS011;56352;55.750;13.198;2023-05-18T04:40:25;9.05;;;1.95;;
69240;SDS011;56352;55.750;13.198;2023-05-18T04:42:51;7.95;;;2.80;;
69240;SDS011;56352;55.750;13.198;2023-05-18T04:45:18;8.00;;;2.35;;
69240;SDS011;56352;55.750;13.198;2023-05-18T04:47:48;5.57;;;1.58;;
69240;SDS011;56352;55.750;13.198;2023-05-18T04:50:20;10.68;;;2.10;;
69240;SDS011;56352;55.750;13.198;2023-05-18T04:52:47;5.97;;;1.90;;
69240;SDS011;56352;55.750;13.198;2023-05-18T04:55:15;8.02;;;2.38;;
69240;SDS011;56352;55.750;13.198;2023-05-18T04:57:41;4.22;;;2.10;;
69240;SDS011;56352;55.750;13.198;2023-05-18T05:00:10;7.28;;;1.83;;
69240;SDS011;56352;55.750;13.198;2023-05-18T05:02:38;8.43;;;2.08;;
69240;SDS011;56352;55.750;13.198;2023-05-18T05:05:05;7.63;;;1.73;;
69240;SDS011;56352;55.750;13.198;2023-05-18T05:07:32;4.35;;;1.80;;
69240;SDS011;56352;55.750;13.198;2023-05-18T05:09:59;5.72;;;1.52;;
69240;SDS011;56352;55.750;13.198;2023-05-18T05:12:25;7.13;;;1.90;;
69240;SDS011;56352;55.750;13.198;2023-05-18T05:14:52;7.80;;;1.67;;
69240;SDS011;56352;55.750;13.198;2023-05-18T05:17:18;8.63;;;2.10;;
69240;SDS011;56352;55.750;13.198;2023-05-18T05:19:45;10.02;;;2.50;;
69240;SDS011;56352;55.750;13.198;2023-05-18T05:22:12;7.35;;;2.25;;
69240;SDS011;56352;55.750;13.198;2023-05-18T05:24:38;8.05;;;1.95;;
69240;SDS011;56352;55.750;13.198;2023-05-18T05:27:05;7.78;;;1.73;;
69240;SDS011;56352;55.750;13.198;2023-05-18T05:29:31;5.32;;;1.65;;
69240;SDS011;56352;55.750;13.198;2023-05-18T05:31:57;5.13;;;1.70;;
69240;SDS011;56352;55.750;13.198;2023-05-18T05:34:24;6.68;;;1.88;;
69240;SDS011;56352;55.750;13.198;2023-05-18T05:36:50;4.30;;;1.58;;
69240;SDS011;56352;55.750;13.198;2023-05-18T05:39:17;10.27;;;1.80;;
69240;SDS011;56352;55.750;13.198;2023-05-18T05:41:44;9.50;;;2.30;;
69240;SDS011;56352;55.750;13.198;2023-05-18T05:44:11;4.72;;;1.35;;
69240;SDS011;56352;55.750;13.198;2023-05-18T05:46:37;5.45;;;1.50;;
69240;SDS011;56352;55.750;13.198;2023-05-18T05:49:12;5.70;;;1.50;;
69240;SDS011;56352;55.750;13.198;2023-05-18T05:51:38;6.00;;;2.08;;
69240;SDS011;56352;55.750;13.198;2023-05-18T05:54:05;6.93;;;1.58;;
69240;SDS011;56352;55.750;13.198;2023-05-18T05:56:33;6.78;;;1.98;;
69240;SDS011;56352;55.750;13.198;2023-05-18T05:59:00;5.93;;;1.88;;
69240;SDS011;56352;55.750;13.198;2023-05-18T06:01:27;8.15;;;1.80;;
69240;SDS011;56352;55.750;13.198;2023-05-18T06:03:54;7.95;;;1.98;;
69240;SDS011;56352;55.750;13.198;2023-05-18T06:06:21;9.18;;;1.95;;
69240;SDS011;56352;55.750;13.198;2023-05-18T06:08:47;5.55;;;1.60;;
69240;SDS011;56352;55.750;13.198;2023-05-18T06:11:14;5.72;;;1.75;;
69240;SDS011;56352;55.750;13.198;2023-05-18T06:13:40;10.20;;;1.55;;
69240;SDS011;56352;55.750;13.198;2023-05-18T06:16:07;5.22;;;1.35;;
69240;SDS011;56352;55.750;13.198;2023-05-18T06:18:34;3.83;;;1.65;;
69240;SDS011;56352;55.750;13.198;2023-05-18T06:21:00;6.40;;;1.67;;
69240;SDS011;56352;55.750;13.198;2023-05-18T06:23:27;6.05;;;2.20;;
69240;SDS011;56352;55.750;13.198;2023-05-18T06:25:53;6.65;;;1.95;;
69240;SDS011;56352;55.750;13.198;2023-05-18T06:28:20;7.18;;;2.08;;
69240;SDS011;56352;55.750;13.198;2023-05-18T06:30:47;13.35;;;2.50;;
69240;SDS011;56352;55.750;13.198;2023-05-18T06:33:15;6.60;;;1.75;;
69240;SDS011;56352;55.750;13.198;2023-05-18T06:35:42;7.53;;;1.60;;
69240;SDS011;56352;55.750;13.198;2023-05-18T06:38:08;6.85;;;1.85;;
69240;SDS011;56352;55.750;13.198;2023-05-18T06:40:35;7.18;;;1.77;;
69240;SDS011;56352;55.750;13.198;2023-05-18T06:43:01;4.97;;;1.85;;
69240;SDS011;56352;55.750;13.198;2023-05-18T06:45:28;5.20;;;1.70;;
69240;SDS011;56352;55.750;13.198;2023-05-18T06:47:55;6.32;;;1.83;;
69240;SDS011;56352;55.750;13.198;2023-05-18T06:50:21;5.88;;;1.73;;
69240;SDS011;56352;55.750;13.198;2023-05-18T06:52:48;7.05;;;1.95;;
69240;SDS011;56352;55.750;13.198;2023-05-18T06:55:15;4.03;;;1.70;;
69240;SDS011;56352;55.750;13.198;2023-05-18T06:57:42;5.63;;;1.92;;
69240;SDS011;56352;55.750;13.198;2023-05-18T07:00:09;5.88;;;1.60;;
69240;SDS011;56352;55.750;13.198;2023-05-18T07:02:38;5.72;;;1.80;;
69240;SDS011;56352;55.750;13.198;2023-05-18T07:05:05;7.43;;;1.73;;
69240;SDS011;56352;55.750;13.198;2023-05-18T07:07:34;6.72;;;2.10;;
69240;SDS011;56352;55.750;13.198;2023-05-18T07:10:01;6.20;;;1.60;;
69240;SDS011;56352;55.750;13.198;2023-05-18T07:12:29;8.43;;;1.60;;
69240;SDS011;56352;55.750;13.198;2023-05-18T07:14:55;8.68;;;2.25;;
69240;SDS011;56352;55.750;13.198;2023-05-18T07:17:22;4.53;;;1.65;;
69240;SDS011;56352;55.750;13.198;2023-05-18T07:19:52;9.82;;;1.90;;
69240;SDS011;56352;55.750;13.198;2023-05-18T07:22:19;5.22;;;1.65;;
69240;SDS011;56352;55.750;13.198;2023-05-18T07:24:45;4.85;;;1.75;;
69240;SDS011;56352;55.750;13.198;2023-05-18T07:27:12;5.82;;;1.90;;
69240;SDS011;56352;55.750;13.198;2023-05-18T07:29:39;5.90;;;1.63;;
69240;SDS011;56352;55.750;13.198;2023-05-18T07:32:05;4.97;;;1.73;;
69240;SDS011;56352;55.750;13.198;2023-05-18T07:34:33;6.97;;;1.60;;
69240;SDS011;56352;55.750;13.198;2023-05-18T07:36:59;6.40;;;1.60;;
69240;SDS011;56352;55.750;13.198;2023-05-18T07:39:26;6.40;;;1.30;;
69240;SDS011;56352;55.750;13.198;2023-05-18T07:41:54;9.07;;;2.28;;
69240;SDS011;56352;55.750;13.198;2023-05-18T07:44:21;6.03;;;1.63;;
69240;SDS011;56352;55.750;13.198;2023-05-18T07:46:47;7.85;;;1.90;;
69240;SDS011;56352;55.750;13.198;2023-05-18T07:49:14;7.57;;;2.10;;
69240;SDS011;56352;55.750;13.198;2023-05-18T07:51:41;6.53;;;1.83;;
69240;SDS011;56352;55.750;13.198;2023-05-18T07:54:07;4.55;;;1.73;;
69240;SDS011;56352;55.750;13.198;2023-05-18T07:56:34;4.97;;;1.92;;
69240;SDS011;56352;55.750;13.198;2023-05-18T07:59:01;7.03;;;2.10;;
69240;SDS011;56352;55.750;13.198;2023-05-18T08:01:28;5.22;;;1.90;;
69240;SDS011;56352;55.750;13.198;2023-05-18T08:03:55;6.88;;;2.00;;
69240;SDS011;56352;55.750;13.198;2023-05-18T08:06:22;5.90;;;1.90;;
69240;SDS011;56352;55.750;13.198;2023-05-18T08:08:49;6.13;;;2.03;;
69240;SDS011;56352;55.750;13.198;2023-05-18T08:11:15;4.88;;;1.88;;
69240;SDS011;56352;55.750;13.198;2023-05-18T08:13:42;6.00;;;1.75;;
69240;SDS011;56352;55.750;13.198;2023-05-18T08:16:09;5.88;;;2.17;;
69240;SDS011;56352;55.750;13.198;2023-05-18T08:18:38;7.35;;;1.88;;
69240;SDS011;56352;55.750;13.198;2023-05-18T08:21:05;4.55;;;1.90;;
69240;SDS011;56352;55.750;13.198;2023-05-18T08:23:37;4.57;;;1.92;;
69240;SDS011;56352;55.750;13.198;2023-05-18T08:26:04;5.07;;;1.92;;
69240;SDS011;56352;55.750;13.198;2023-05-18T08:28:30;4.53;;;1.40;;
69240;SDS011;56352;55.750;13.198;2023-05-18T08:30:57;7.32;;;2.05;;
69240;SDS011;56352;55.750;13.198;2023-05-18T08:33:24;7.00;;;1.85;;
69240;SDS011;56352;55.750;13.198;2023-05-18T08:35:52;4.15;;;1.83;;
69240;SDS011;56352;55.750;13.198;2023-05-18T08:38:19;6.00;;;1.77;;
69240;SDS011;56352;55.750;13.198;2023-05-18T08:40:49;4.95;;;1.83;;
69240;SDS011;56352;55.750;13.198;2023-05-18T08:43:19;6.07;;;2.17;;
69240;SDS011;56352;55.750;13.198;2023-05-18T08:45:54;4.72;;;2.08;;
69240;SDS011;56352;55.750;13.198;2023-05-18T08:48:23;5.40;;;1.92;;
69240;SDS011;56352;55.750;13.198;2023-05-18T08:50:53;4.55;;;1.70;;
69240;SDS011;56352;55.750;13.198;2023-05-18T08:53:22;5.47;;;1.80;;
69240;SDS011;56352;55.750;13.198;2023-05-18T08:55:49;5.03;;;1.80;;
69240;SDS011;56352;55.750;13.198;2023-05-18T08:58:19;5.38;;;1.90;;
69240;SDS011;56352;55.750;13.198;2023-05-18T09:00:46;6.72;;;1.77;;
69240;SDS011;56352;55.750;13.198;2023-05-18T09:03:19;7.43;;;2.50;;
69240;SDS011;56352;55.750;13.198;2023-05-18T09:05:46;10.73;;;2.10;;
69240;SDS011;56352;55.750;13.198;2023-05-18T09:08:14;7.03;;;2.22;;
69240;SDS011;56352;55.750;13.198;2023-05-18T09:10:41;7.30;;;2.03;;
69240;SDS011;56352;55.750;13.198;2023-05-18T09:13:07;5.93;;;1.80;;
69240;SDS011;56352;55.750;13.198;2023-05-18T09:15:35;7.40;;;2.13;;
69240;SDS011;56352;55.750;13.198;2023-05-18T09:18:01;5.70;;;2.33;;
69240;SDS011;56352;55.750;13.198;2023-05-18T09:20:29;7.47;;;2.00;;
69240;SDS011;56352;55.750;13.198;2023-05-18T09:22:56;8.52;;;2.33;;
69240;SDS011;56352;55.750;13.198;2023-05-18T09:25:22;7.28;;;2.03;;
69240;SDS011;56352;55.750;13.198;2023-05-18T09:27:49;7.88;;;2.50;;
69240;SDS011;56352;55.750;13.198;2023-05-18T09:30:18;7.63;;;1.90;;
69240;SDS011;56352;55.750;13.198;2023-05-18T09:32:45;3.65;;;2.10;;
69240;SDS011;56352;55.750;13.198;2023-05-18T09:35:13;6.60;;;2.53;;
69240;SDS011;56352;55.750;13.198;2023-05-18T09:37:40;6.93;;;2.38;;
69240;SDS011;56352;55.750;13.198;2023-05-18T09:40:06;6.43;;;2.30;;
69240;SDS011;56352;55.750;13.198;2023-05-18T09:42:34;2.85;;;1.70;;
69240;SDS011;56352;55.750;13.198;2023-05-18T09:45:02;7.63;;;2.40;;
69240;SDS011;56352;55.750;13.198;2023-05-18T09:47:28;5.72;;;2.22;;
69240;SDS011;56352;55.750;13.198;2023-05-18T09:49:55;4.78;;;1.80;;
69240;SDS011;56352;55.750;13.198;2023-05-18T09:52:22;6.07;;;2.00;;
69240;SDS011;56352;55.750;13.198;2023-05-18T09:54:58;5.00;;;2.30;;
69240;SDS011;56352;55.750;13.198;2023-05-18T09:57:27;4.95;;;2.30;;
69240;SDS011;56352;55.750;13.198;2023-05-18T09:59:54;5.93;;;2.55;;
69240;SDS011;56352;55.750;13.198;2023-05-18T10:02:21;6.53;;;2.20;;
69240;SDS011;56352;55.750;13.198;2023-05-18T10:04:51;6.57;;;2.55;;
69240;SDS011;56352;55.750;13.198;2023-05-18T10:07:17;6.82;;;2.13;;
69240;SDS011;56352;55.750;13.198;2023-05-18T10:09:44;5.53;;;2.13;;
69240;SDS011;56352;55.750;13.198;2023-05-18T10:12:12;6.77;;;2.60;;
69240;SDS011;56352;55.750;13.198;2023-05-18T10:14:43;5.30;;;2.33;;
69240;SDS011;56352;55.750;13.198;2023-05-18T10:17:13;7.18;;;2.33;;
69240;SDS011;56352;55.750;13.198;2023-05-18T10:19:42;5.10;;;2.20;;
69240;SDS011;56352;55.750;13.198;2023-05-18T10:22:09;5.90;;;2.00;;
69240;SDS011;56352;55.750;13.198;2023-05-18T10:24:37;5.15;;;2.25;;
69240;SDS011;56352;55.750;13.198;2023-05-18T10:27:05;4.75;;;2.15;;
69240;SDS011;56352;55.750;13.198;2023-05-18T10:31:59;7.43;;;2.67;;
69240;SDS011;56352;55.750;13.198;2023-05-18T10:34:32;8.55;;;2.33;;
69240;SDS011;56352;55.750;13.198;2023-05-18T10:37:00;7.65;;;2.80;;
69240;SDS011;56352;55.750;13.198;2023-05-18T10:39:34;9.82;;;2.80;;
69240;SDS011;56352;55.750;13.198;2023-05-18T10:42:02;5.65;;;2.42;;
69240;SDS011;56352;55.750;13.198;2023-05-18T10:44:29;7.30;;;2.38;;
69240;SDS011;56352;55.750;13.198;2023-05-18T10:46:56;6.72;;;2.55;;
69240;SDS011;56352;55.750;13.198;2023-05-18T10:49:24;5.32;;;2.10;;
69240;SDS011;56352;55.750;13.198;2023-05-18T10:51:51;6.28;;;2.40;;
69240;SDS011;56352;55.750;13.198;2023-05-18T10:54:20;7.60;;;2.67;;
69240;SDS011;56352;55.750;13.198;2023-05-18T10:56:50;6.53;;;2.47;;
69240;SDS011;56352;55.750;13.198;2023-05-18T10:59:17;7.55;;;2.88;;
69240;SDS011;56352;55.750;13.198;2023-05-18T11:01:45;5.13;;;2.30;;
69240;SDS011;56352;55.750;13.198;2023-05-18T11:04:13;8.25;;;2.60;;
69240;SDS011;56352;55.750;13.198;2023-05-18T11:06:39;4.60;;;2.35;;
69240;SDS011;56352;55.750;13.198;2023-05-18T11:09:06;4.75;;;2.20;;
69240;SDS011;56352;55.750;13.198;2023-05-18T11:11:49;6.72;;;2.42;;
69240;SDS011;56352;55.750;13.198;2023-05-18T11:14:19;6.95;;;2.85;;
69240;SDS011;56352;55.750;13.198;2023-05-18T11:16:49;8.20;;;2.58;;
69240;SDS011;56352;55.750;13.198;2023-05-18T11:19:16;7.20;;;2.50;;
69240;SDS011;56352;55.750;13.198;2023-05-18T11:26:42;7.10;;;2.57;;
69240;SDS011;56352;55.750;13.198;2023-05-18T11:29:16;6.53;;;2.50;;
69240;SDS011;56352;55.750;13.198;2023-05-18T11:31:55;10.27;;;2.42;;
69240;SDS011;56352;55.750;13.198;2023-05-18T11:34:40;4.07;;;2.30;;
69240;SDS011;56352;55.750;13.198;2023-05-18T11:37:11;7.07;;;2.60;;
69240;SDS011;56352;55.750;13.198;2023-05-18T11:39:41;3.92;;;1.88;;
69240;SDS011;56352;55.750;13.198;2023-05-18T11:42:21;7.88;;;2.50;;
69240;SDS011;56352;55.750;13.198;2023-05-18T11:44:51;6.07;;;2.47;;
69240;SDS011;56352;55.750;13.198;2023-05-18T11:47:19;7.90;;;2.83;;
69240;SDS011;56352;55.750;13.198;2023-05-18T11:49:47;8.35;;;2.90;;
69240;SDS011;56352;55.750;13.198;2023-05-18T11:52:20;6.35;;;2.50;;
69240;SDS011;56352;55.750;13.198;2023-05-18T11:54:51;5.85;;;2.17;;
69240;SDS011;56352;55.750;13.198;2023-05-18T11:57:19;6.93;;;2.58;;
69240;SDS011;56352;55.750;13.198;2023-05-18T11:59:46;8.00;;;3.00;;
69240;SDS011;56352;55.750;13.198;2023-05-18T12:02:20;4.85;;;2.45;;
69240;SDS011;56352;55.750;13.198;2023-05-18T12:04:49;6.80;;;2.50;;
69240;SDS011;56352;55.750;13.198;2023-05-18T12:07:16;5.85;;;2.28;;
69240;SDS011;56352;55.750;13.198;2023-05-18T12:09:44;6.05;;;2.88;;
69240;SDS011;56352;55.750;13.198;2023-05-18T12:12:12;6.88;;;2.55;;
69240;SDS011;56352;55.750;13.198;2023-05-18T12:14:42;9.90;;;2.75;;
69240;SDS011;56352;55.750;13.198;2023-05-18T12:17:10;6.70;;;2.67;;
69240;SDS011;56352;55.750;13.198;2023-05-18T12:19:40;8.63;;;2.70;;
69240;SDS011;56352;55.750;13.198;2023-05-18T12:22:07;5.50;;;2.60;;
69240;SDS011;56352;55.750;13.198;2023-05-18T12:24:34;7.83;;;2.40;;
69240;SDS011;56352;55.750;13.198;2023-05-18T12:27:00;5.88;;;2.35;;
69240;SDS011;56352;55.750;13.198;2023-05-18T12:29:33;7.07;;;2.58;;
69240;SDS011;56352;55.750;13.198;2023-05-18T12:32:03;4.95;;;2.05;;
69240;SDS011;56352;55.750;13.198;2023-05-18T12:34:30;6.95;;;3.20;;
69240;SDS011;56352;55.750;13.198;2023-05-18T12:36:57;6.15;;;2.85;;
69240;SDS011;56352;55.750;13.198;2023-05-18T12:39:24;4.90;;;2.47;;
69240;SDS011;56352;55.750;13.198;2023-05-18T12:42:07;7.38;;;2.47;;
69240;SDS011;56352;55.750;13.198;2023-05-18T12:44:33;7.68;;;3.00;;
69240;SDS011;56352;55.750;13.198;2023-05-18T12:47:00;5.90;;;2.40;;
69240;SDS011;56352;55.750;13.198;2023-05-18T12:49:26;6.90;;;2.45;;
69240;SDS011;56352;55.750;13.198;2023-05-18T12:51:54;7.28;;;2.50;;
69240;SDS011;56352;55.750;13.198;2023-05-18T12:54:27;5.50;;;2.60;;
69240;SDS011;56352;55.750;13.198;2023-05-18T12:56:55;4.55;;;2.55;;
69240;SDS011;56352;55.750;13.198;2023-05-18T12:59:27;6.90;;;2.60;;
69240;SDS011;56352;55.750;13.198;2023-05-18T13:01:54;7.53;;;2.90;;
69240;SDS011;56352;55.750;13.198;2023-05-18T13:06:48;6.43;;;2.67;;
69240;SDS011;56352;55.750;13.198;2023-05-18T13:09:15;6.22;;;2.53;;
69240;SDS011;56352;55.750;13.198;2023-05-18T13:11:45;7.22;;;2.80;;
69240;SDS011;56352;55.750;13.198;2023-05-18T13:14:22;6.35;;;2.70;;
69240;SDS011;56352;55.750;13.198;2023-05-18T13:16:50;5.45;;;2.40;;
69240;SDS011;56352;55.750;13.198;2023-05-18T13:19:18;7.60;;;2.72;;
69240;SDS011;56352;55.750;13.198;2023-05-18T13:21:45;7.07;;;2.58;;
69240;SDS011;56352;55.750;13.198;2023-05-18T13:24:12;4.63;;;2.50;;
69240;SDS011;56352;55.750;13.198;2023-05-18T13:26:39;5.90;;;2.78;;
69240;SDS011;56352;55.750;13.198;2023-05-18T13:29:06;6.07;;;2.40;;
69240;SDS011;56352;55.750;13.198;2023-05-18T13:31:33;5.10;;;2.38;;
69240;SDS011;56352;55.750;13.198;2023-05-18T13:34:00;9.97;;;2.70;;
69240;SDS011;56352;55.750;13.198;2023-05-18T13:36:27;5.70;;;2.80;;
69240;SDS011;56352;55.750;13.198;2023-05-18T13:38:55;6.30;;;2.58;;
69240;SDS011;56352;55.750;13.198;2023-05-18T13:41:21;6.45;;;2.47;;
69240;SDS011;56352;55.750;13.198;2023-05-18T13:43:48;7.00;;;2.78;;
69240;SDS011;56352;55.750;13.198;2023-05-18T13:46:15;7.55;;;3.65;;
69240;SDS011;56352;55.750;13.198;2023-05-18T13:48:41;5.70;;;3.00;;
69240;SDS011;56352;55.750;13.198;2023-05-18T13:51:08;4.93;;;2.50;;
69240;SDS011;56352;55.750;13.198;2023-05-18T13:53:34;5.88;;;2.30;;
69240;SDS011;56352;55.750;13.198;2023-05-18T13:56:04;5.07;;;2.55;;
69240;SDS011;56352;55.750;13.198;2023-05-18T13:58:30;3.85;;;2.22;;
69240;SDS011;56352;55.750;13.198;2023-05-18T14:00:57;7.22;;;2.40;;
69240;SDS011;56352;55.750;13.198;2023-05-18T14:03:24;5.82;;;2.30;;
69240;SDS011;56352;55.750;13.198;2023-05-18T14:05:51;4.93;;;2.63;;
69240;SDS011;56352;55.750;13.198;2023-05-18T14:08:18;5.90;;;2.60;;
69240;SDS011;56352;55.750;13.198;2023-05-18T14:10:44;5.03;;;2.85;;
69240;SDS011;56352;55.750;13.198;2023-05-18T14:13:11;6.00;;;2.95;;
69240;SDS011;56352;55.750;13.198;2023-05-18T14:15:38;7.38;;;2.88;;
69240;SDS011;56352;55.750;13.198;2023-05-18T14:18:04;7.35;;;2.72;;
69240;SDS011;56352;55.750;13.198;2023-05-18T14:20:31;6.90;;;3.33;;
69240;SDS011;56352;55.750;13.198;2023-05-18T14:25:26;5.65;;;2.45;;
69240;SDS011;56352;55.750;13.198;2023-05-18T14:27:52;7.45;;;3.08;;
69240;SDS011;56352;55.750;13.198;2023-05-18T14:30:19;3.90;;;2.30;;
69240;SDS011;56352;55.750;13.198;2023-05-18T14:32:46;5.35;;;3.35;;
69240;SDS011;56352;55.750;13.198;2023-05-18T14:35:13;6.50;;;3.10;;
69240;SDS011;56352;55.750;13.198;2023-05-18T14:37:39;6.70;;;2.42;;
69240;SDS011;56352;55.750;13.198;2023-05-18T14:40:06;6.45;;;2.70;;
69240;SDS011;56352;55.750;13.198;2023-05-18T14:42:33;5.13;;;2.50;;
69240;SDS011;56352;55.750;13.198;2023-05-18T14:45:01;4.57;;;2.40;;
69240;SDS011;56352;55.750;13.198;2023-05-18T14:47:28;5.07;;;2.40;;
69240;SDS011;56352;55.750;13.198;2023-05-18T14:49:55;7.88;;;2.60;;
69240;SDS011;56352;55.750;13.198;2023-05-18T14:52:21;7.47;;;2.70;;
69240;SDS011;56352;55.750;13.198;2023-05-18T14:54:48;5.50;;;2.22;;
69240;SDS011;56352;55.750;13.198;2023-05-18T14:57:15;5.97;;;2.63;;
69240;SDS011;56352;55.750;13.198;2023-05-18T14:59:41;7.50;;;2.42;;
69240;SDS011;56352;55.750;13.198;2023-05-18T15:02:08;7.05;;;3.40;;